Terminal Aerodrome Forecast
Issued by NWS

Home | Current Version | Previous Version | Text Only | Print | Product List | Glossary On
Versions: 1 2 3 4 5 6 7 8 9 10 11 12
691
FTUS42 TJSJ 171720
TAFISX
TAF
TISX 171720Z 1718/1818 06012G18KT P6SM FEW025 SCT040
     FM180000 06010KT P6SM VCSH SCT025 SCT040
     FM181350 08012G20KT P6SM FEW030 SCT060=

USA.gov is the U.S. government's official web portal to all federal, state and local government web resources and services.